Time;durP1;ratioP1;P1;durP2;ratioP2;P2;SDS_P1;SDS_P2;PMS_P1;PMS_P2;Temp;Humidity;BMP_temperature;BMP_pressure;BME280_temperature;BME280_humidity;BME280_pressure;Samples;Min_cycle;Max_cycle;Signal;HPM_P1;HPM_P2
2022/04/11 00:00:40;;;;;;;6.30;5.00;;;1.50;1.00;;;;;;4994382;28;20157;-77
2022/04/11 00:03:29;;;;;;;7.93;5.15;;;;;;;;;;4994603;28;20168;-78
2022/04/11 00:06:22;;;;;;;7.45;5.00;;;1.50;1.00;;;;;;4994127;28;20177;-78
2022/04/11 00:09:10;;;;;;;12.27;5.38;;;1.40;1.00;;;;;;4981646;28;20826;-77
2022/04/11 00:11:36;;;;;;;10.27;6.05;;;1.40;1.00;;;;;;4994041;28;20256;-77
2022/04/11 00:14:04;;;;;;;6.20;5.37;;;1.40;1.00;;;;;;4994167;28;20264;-77
2022/04/11 00:19:53;;;;;;;7.80;6.10;;;;;;;;;;4994119;28;20169;-77
2022/04/11 00:22:52;;;;;;;7.20;5.72;;;1.30;1.00;;;;;;4996913;28;20177;-78
2022/04/11 00:28:39;;;;;;;9.13;5.68;;;1.30;1.00;;;;;;4998055;28;20188;-77
2022/04/11 00:34:27;;;;;;;9.15;5.63;;;1.20;1.00;;;;;;4997918;28;20851;-81
2022/04/11 00:40:52;;;;;;;16.48;6.00;;;1.30;1.00;;;;;;4988590;28;20228;-80
2022/04/11 00:46:39;;;;;;;7.10;5.28;;;1.30;1.00;;;;;;4994416;28;20236;-81
2022/04/11 00:52:30;;;;;;;13.23;5.82;;;1.40;1.00;;;;;;4997059;28;20188;-77
2022/04/11 00:55:23;;;;;;;6.38;5.72;;;1.40;1.00;;;;;;4997619;28;20154;-77
2022/04/11 00:58:23;;;;;;;15.32;6.35;;;1.40;1.00;;;;;;4986395;28;20197;-77
2022/04/11 01:04:23;;;;;;;8.60;6.13;;;1.40;1.00;;;;;;4997761;28;20176;-81
2022/04/11 01:06:56;;;;;;;8.30;5.70;;;1.40;1.00;;;;;;4996819;28;20170;-81
2022/04/11 01:09:53;;;;;;;10.13;5.28;;;1.40;1.00;;;;;;4997282;28;20184;-81
2022/04/11 01:12:52;;;;;;;9.75;5.55;;;1.40;1.00;;;;;;4977975;28;20178;-81
2022/04/11 01:15:53;;;;;;;5.78;5.15;;;1.40;1.00;;;;;;4993018;28;20205;-81
2022/04/11 01:18:19;;;;;;;6.43;5.20;;;;;;;;;;4994429;28;20204;-77
2022/04/11 01:24:52;;;;;;;7.47;5.65;;;1.40;1.00;;;;;;4996680;28;20914;-77
2022/04/11 01:27:53;;;;;;;8.60;5.38;;;1.40;1.00;;;;;;4996489;28;20177;-77
2022/04/11 01:30:23;;;;;;;12.60;5.95;;;;;;;;;;4996530;28;20198;-77
2022/04/11 01:32:53;;;;;;;5.90;5.30;;;;;;;;;;4996044;28;20177;-77
2022/04/11 01:38:40;;;;;;;4.78;4.38;;;1.50;1.00;;;;;;4995429;28;20205;-77
2022/04/11 01:41:52;;;;;;;8.33;5.43;;;1.60;1.00;;;;;;4996599;28;20178;-77
2022/04/11 01:44:40;;;;;;;8.40;5.43;;;1.60;1.00;;;;;;4996351;28;20211;-77
2022/04/11 01:50:46;;;;;;;6.50;5.38;;;1.70;1.00;;;;;;4990900;28;20252;-77
2022/04/11 01:53:18;;;;;;;10.27;5.80;;;1.70;1.00;;;;;;5011422;28;20572;-77
2022/04/11 01:59:22;;;;;;;7.72;5.18;;;1.70;1.00;;;;;;4996190;28;20232;-77
2022/04/11 02:05:23;;;;;;;7.97;5.47;;;1.80;1.00;;;;;;4996347;28;20192;-77
2022/04/11 02:11:11;;;;;;;9.48;5.63;;;1.90;1.00;;;;;;4989493;28;20667;-77
2022/04/11 02:17:22;;;;;;;9.57;5.63;;;1.90;1.00;;;;;;4995578;28;20248;-81
2022/04/11 02:19:48;;;;;;;7.80;5.20;;;;;;;;;;5011217;28;20182;-81
2022/04/11 02:22:52;;;;;;;6.82;4.95;;;1.90;1.00;;;;;;4995718;28;20192;-81
2022/04/11 02:29:22;;;;;;;10.20;5.68;;;1.90;1.00;;;;;;4993923;28;20186;-81
2022/04/11 02:32:22;;;;;;;7.47;5.68;;;2.00;1.00;;;;;;4995836;28;20239;-81
2022/04/11 02:34:48;;;;;;;7.95;6.00;;;2.00;1.00;;;;;;5010822;28;20193;-78
2022/04/11 02:37:23;;;;;;;6.60;5.20;;;;;;;;;;4995415;28;20276;-77
2022/04/11 02:40:12;;;;;;;8.00;5.25;;;2.10;1.00;;;;;;4983498;28;20177;-77
2022/04/11 02:42:53;;;;;;;9.23;5.55;;;;;;;;;;4995126;28;20260;-77
2022/04/11 02:45:52;;;;;;;6.03;5.07;;;2.10;1.00;;;;;;4994302;28;20536;-77
2022/04/11 02:48:52;;;;;;;8.05;6.57;;;2.10;1.00;;;;;;4994980;28;20186;-77
2022/04/11 02:51:52;;;;;;;9.52;6.88;;;2.10;1.00;;;;;;4984123;28;20541;-77
2022/04/11 02:54:52;;;;;;;7.82;5.82;;;2.10;1.00;;;;;;4995009;28;20192;-77
2022/04/11 02:57:23;;;;;;;10.88;6.13;;;;;;;;;;4994816;28;20205;-77
2022/04/11 02:59:50;;;;;;;8.88;6.47;;;;;;;;;;4995105;28;20173;-77
2022/04/11 03:02:23;;;;;;;10.00;5.85;;;;;;;;;;4995221;28;20248;-77
2022/04/11 03:04:53;;;;;;;8.38;5.72;;;;;;;;;;4995488;28;20573;-80
2022/04/11 03:07:52;;;;;;;9.27;5.97;;;2.20;1.00;;;;;;4982748;28;20189;-81
2022/04/11 03:10:52;;;;;;;12.48;5.57;;;2.20;1.00;;;;;;4993411;28;20815;-80
2022/04/11 03:17:22;;;;;;;9.13;6.60;;;2.20;1.00;;;;;;4994384;28;20568;-81
2022/04/11 03:20:22;;;;;;;8.57;5.80;;;2.10;1.00;;;;;;4995034;28;20174;-78
2022/04/11 03:23:22;;;;;;;9.40;6.90;;;2.10;1.00;;;;;;4994807;28;20177;-77
2022/04/11 03:26:22;;;;;;;9.10;6.47;;;2.10;1.00;;;;;;4994755;28;20189;-77
2022/04/11 03:28:53;;;;;;;8.70;6.20;;;;;;;;;;4994325;28;20182;-77
2022/04/11 03:31:23;;;;;;;7.80;6.05;;;;;;;;;;4994550;28;20173;-77
2022/04/11 03:33:54;;;;;;;8.68;6.05;;;;;;;;;;4994672;28;20220;-77
2022/04/11 03:36:24;;;;;;;9.10;5.72;;;;;;;;;;4994631;28;20205;-81
2022/04/11 03:39:22;;;;;;;9.93;6.55;;;2.00;1.00;;;;;;4994323;28;20177;-81
2022/04/11 03:45:11;;;;;;;9.05;6.82;;;;;;;;;;4994148;28;20184;-81
2022/04/11 03:47:53;;;;;;;11.20;7.10;;;;;;;;;;4994388;28;20173;-81
2022/04/11 03:50:23;;;;;;;10.05;7.50;;;;;;;;;;4994499;28;20184;-81
2022/04/11 03:53:22;;;;;;;10.95;7.72;;;2.00;1.00;;;;;;4974843;28;20173;-81
2022/04/11 03:56:22;;;;;;;13.55;7.90;;;2.00;1.00;;;;;;4992270;28;20182;-81
2022/04/11 04:02:23;;;;;;;19.25;7.93;;;;;;;;;;4993915;28;20248;-81
2022/04/11 04:04:53;;;;;;;11.98;7.78;;;;;;;;;;4993115;28;20629;-77
2022/04/11 04:07:23;;;;;;;11.18;7.63;;;;;;;;;;4993829;28;20192;-77
2022/04/11 04:10:06;;;;;;;9.55;7.75;;;2.00;1.00;;;;;;4994410;28;20177;-77
2022/04/11 04:13:22;;;;;;;12.32;8.20;;;2.00;1.00;;;;;;4993925;28;20187;-77
2022/04/11 04:15:53;;;;;;;10.23;7.65;;;;;;;;;;4976205;28;20178;-77
2022/04/11 04:18:35;;;;;;;10.32;7.93;;;;;;;;;;4993892;28;20177;-77
2022/04/11 04:21:22;;;;;;;12.93;8.10;;;1.80;1.00;;;;;;4994630;28;20563;-78
2022/04/11 04:23:53;;;;;;;17.50;8.07;;;;;;;;;;4986790;28;20185;-78
2022/04/11 04:26:19;;;;;;;12.93;8.45;;;;;;;;;;4992406;28;20185;-78
2022/04/11 04:28:45;;;;;;;16.30;8.23;;;;;;;;;;4993301;28;20186;-77
2022/04/11 04:31:11;;;;;;;10.90;8.10;;;;;;;;;;4992982;28;20185;-77
2022/04/11 04:33:37;;;;;;;10.00;8.20;;;;;;;;;;4993271;28;20405;-78
2022/04/11 04:36:03;;;;;;;14.43;8.33;;;;;;;;;;4990746;28;20542;-80
2022/04/11 04:38:29;;;;;;;13.50;9.02;;;;;;;;;;4973993;28;20895;-82
2022/04/11 04:40:55;;;;;;;11.57;8.73;;;;;;;;;;4973814;28;20249;-80
2022/04/11 04:43:21;;;;;;;9.50;8.30;;;;;;;;;;4973635;28;20400;-81
2022/04/11 04:45:47;;;;;;;12.43;8.90;;;;;;;;;;4975564;28;20899;-81
2022/04/11 04:48:13;;;;;;;11.00;8.68;;;;;;;;;;4993442;28;20416;-80
2022/04/11 04:50:39;;;;;;;17.47;9.33;;;;;;;;;;4993352;28;20173;-80
2022/04/11 04:53:05;;;;;;;11.03;8.47;;;;;;;;;;4993135;28;20429;-80
2022/04/11 04:55:31;;;;;;;17.23;8.67;;;;;;;;;;4993153;28;20508;-80
2022/04/11 04:57:57;;;;;;;11.20;8.30;;;;;;;;;;4992845;28;20456;-78
2022/04/11 05:00:23;;;;;;;14.15;9.15;;;;;;;;;;4987198;28;20439;-78
2022/04/11 05:02:49;;;;;;;12.50;8.63;;;;;;;;;;4992411;28;20174;-77
2022/04/11 05:05:15;;;;;;;14.47;9.03;;;;;;;;;;4993206;28;20284;-77
2022/04/11 05:07:41;;;;;;;14.55;9.05;;;;;;;;;;4993108;28;20462;-78
2022/04/11 05:10:08;;;;;;;12.45;8.60;;;;;;;;;;4996171;28;20248;-77
2022/04/11 05:12:52;;;;;;;12.48;9.15;;;1.50;1.00;;;;;;4995809;28;20229;-81
2022/04/11 05:15:23;;;;;;;11.45;8.57;;;1.50;1.00;;;;;;4995301;28;20196;-81
2022/04/11 05:18:22;;;;;;;13.30;9.50;;;1.50;1.00;;;;;;4997059;28;20570;-81
2022/04/11 05:20:52;;;;;;;18.30;9.48;;;1.50;1.00;;;;;;4997432;28;20188;-77
2022/04/11 05:23:23;;;;;;;13.15;9.45;;;1.50;1.00;;;;;;4996852;28;20178;-77
2022/04/11 05:25:54;;;;;;;18.52;9.48;;;1.50;1.00;;;;;;4997016;28;20282;-78
2022/04/11 05:28:23;;;;;;;14.95;9.45;;;1.60;1.00;;;;;;4996870;28;20174;-77
2022/04/11 05:30:53;;;;;;;12.55;9.05;;;1.60;1.00;;;;;;4996874;28;20177;-77
2022/04/11 05:33:52;;;;;;;15.45;8.82;;;1.60;1.00;;;;;;4996180;28;20177;-77
2022/04/11 05:36:18;;;;;;;13.88;9.30;;;1.70;1.00;;;;;;4988252;28;20189;-80
2022/04/11 05:39:22;;;;;;;18.93;9.77;;;1.60;1.00;;;;;;4996447;28;20664;-80
2022/04/11 05:42:22;;;;;;;11.70;9.35;;;1.70;1.00;;;;;;4995376;28;20181;-81
2022/04/11 05:44:48;;;;;;;12.32;9.00;;;;;;;;;;5008589;28;20297;-81
2022/04/11 05:47:16;;;;;;;14.30;9.13;;;1.80;1.00;;;;;;4994919;28;20284;-81
2022/04/11 05:49:42;;;;;;;15.40;9.90;;;;;;;;;;4982581;28;20480;-81
2022/04/11 05:52:08;;;;;;;14.70;9.47;;;;;;;;;;4996129;28;20189;-78
2022/04/11 05:54:40;;;;;;;12.68;9.30;;;2.00;1.00;;;;;;4994022;28;20786;-77
2022/04/11 05:57:06;;;;;;;20.90;8.90;;;;;;;;;;4995655;28;20202;-77
2022/04/11 05:59:32;;;;;;;17.17;9.97;;;;;;;;;;4995479;28;20633;-77
2022/04/11 06:01:59;;;;;;;11.77;9.30;;;2.20;1.00;;;;;;4995923;28;20448;-78
2022/04/11 06:04:24;;;;;;;12.13;9.45;;;;;;;;;;4995043;28;20204;-78
2022/04/11 06:06:50;;;;;;;12.90;8.50;;;;;;;;;;4995293;28;20625;-78
2022/04/11 06:09:16;;;;;;;12.70;9.20;;;;;;;;;;4995280;28;20417;-78
2022/04/11 06:11:42;;;;;;;14.23;10.03;;;;;;;;;;4994899;28;20419;-78
2022/04/11 06:14:08;;;;;;;18.20;9.77;;;;;;;;;;4995170;28;20429;-78
2022/04/11 06:16:34;;;;;;;17.27;10.70;;;;;;;;;;4995027;28;20460;-78
2022/04/11 06:19:00;;;;;;;16.60;10.45;;;;;;;;;;4994899;28;20516;-78
2022/04/11 06:21:26;;;;;;;19.10;10.43;;;;;;;;;;4995495;28;20596;-78
2022/04/11 06:23:53;;;;;;;25.40;10.95;;;;;;;;;;4993986;28;20511;-78
2022/04/11 06:26:22;;;;;;;15.23;11.00;;;3.30;1.00;;;;;;4980043;28;20217;-77
2022/04/11 06:28:48;;;;;;;14.10;9.27;;;;;;;;;;4976114;28;20260;-78
2022/04/11 06:31:14;;;;;;;20.80;9.83;;;3.60;1.00;;;;;;4992255;28;20312;-79
2022/04/11 06:33:41;;;;;;;21.83;10.27;;;3.80;1.00;;;;;;4993861;28;20432;-78
2022/04/11 06:36:07;;;;;;;12.77;9.23;;;;;;;;;;4993832;28;20194;-79
2022/04/11 06:38:33;;;;;;;11.97;8.80;;;;;;;;;;4994355;28;20197;-78
2022/04/11 06:41:00;;;;;;;13.87;8.77;;;4.10;1.00;;;;;;4994524;28;20421;-78
2022/04/11 06:43:25;;;;;;;11.30;7.03;;;4.20;1.00;;;;;;4993941;28;20437;-78
2022/04/11 06:45:51;;;;;;;11.27;6.50;;;;;;;;;;4994417;28;20224;-82
2022/04/11 06:48:17;;;;;;;9.10;6.00;;;4.50;1.00;;;;;;4992821;28;20204;-82
2022/04/11 06:50:47;;;;;;;7.80;4.50;;;4.70;1.00;;;;;;4994698;28;21042;-82
2022/04/11 06:53:16;;;;;;;8.70;6.00;;;4.80;1.00;;;;;;4993495;28;20181;-82
2022/04/11 06:55:48;;;;;;;14.70;6.13;;;5.00;1.00;;;;;;4994614;28;20428;-82
2022/04/11 06:58:17;;;;;;;31.63;6.17;;;5.20;1.00;;;;;;5004130;28;20537;-81
2022/04/11 07:00:44;;;;;;;13.10;6.60;;;5.20;1.00;;;;;;4994481;28;20412;-82
2022/04/11 07:03:10;;;;;;;9.40;5.97;;;5.50;1.00;;;;;;4994159;28;20904;-81
2022/04/11 07:05:39;;;;;;;8.53;5.93;;;5.50;1.00;;;;;;4993555;28;20425;-77
2022/04/11 07:08:06;;;;;;;8.33;5.60;;;5.70;1.00;;;;;;4993631;28;20541;-75
2022/04/11 07:10:32;;;;;;;9.77;5.17;;;5.80;1.00;;;;;;4994152;28;20417;-77
2022/04/11 07:12:59;;;;;;;7.30;6.00;;;;;;;;;;5001263;28;20420;-77
2022/04/11 07:15:25;;;;;;;9.77;5.63;;;;;;;;;;4993832;28;20797;-76
2022/04/11 07:17:51;;;;;;;8.90;5.00;;;;;;;;;;4993561;28;20425;-77
2022/04/11 07:20:17;;;;;;;7.67;5.30;;;;;;;;;;4993505;28;20413;-77
2022/04/11 07:22:43;;;;;;;15.37;5.73;;;;;;;;;;4993923;28;20947;-76
2022/04/11 07:25:10;;;;;;;8.03;5.23;;;6.50;1.00;;;;;;4991921;28;20531;-77
2022/04/11 07:27:36;;;;;;;10.77;4.73;;;6.60;1.00;;;;;;4991743;28;20473;-80
2022/04/11 07:30:02;;;;;;;8.30;5.50;;;6.70;1.00;;;;;;4993676;28;20424;-80
2022/04/11 07:32:28;;;;;;;8.77;4.70;;;;;;;;;;4993128;28;20483;-75
2022/04/11 07:34:57;;;;;;;12.03;5.27;;;6.90;1.00;;;;;;4993343;28;20982;-79
2022/04/11 07:37:25;;;;;;;8.63;5.80;;;;;;;;;;4994091;28;20425;-79
2022/04/11 07:39:51;;;;;;;8.90;6.00;;;;;;;;;;4993887;28;20427;-78
2022/04/11 07:42:17;;;;;;;7.27;5.13;;;;;;;;;;4993423;28;20440;-78
2022/04/11 07:44:44;;;;;;;8.23;5.03;;;7.60;1.00;;;;;;4993719;28;20413;-78
2022/04/11 07:47:10;;;;;;;11.80;5.73;;;;;;;;;;4992365;28;20472;-78
2022/04/11 07:49:36;;;;;;;13.50;5.00;;;;;;;;;;4992775;28;20428;-78
2022/04/11 07:52:02;;;;;;;6.67;3.83;;;;;;;;;;4993851;28;20452;-78
2022/04/11 07:54:28;;;;;;;6.47;3.93;;;;;;;;;;4993117;28;20919;-78
2022/04/11 07:56:54;;;;;;;12.67;4.40;;;8.00;1.00;;;;;;4993666;28;20423;-78
2022/04/11 07:59:20;;;;;;;4.33;3.73;;;8.20;1.00;;;;;;4993319;28;20409;-78
2022/04/11 08:01:46;;;;;;;4.27;3.67;;;;;;;;;;4993504;28;20185;-78
2022/04/11 08:04:12;;;;;;;8.40;4.27;;;;;;;;;;4992088;28;20189;-78
2022/04/11 08:10:17;;;;;;;5.70;3.50;;;8.70;1.00;;;;;;4991741;28;20780;-80
2022/04/11 08:13:34;;;;;;;4.37;3.53;;;8.70;1.00;;;;;;4990479;28;20452;-80
2022/04/11 08:19:58;;;;;;;4.07;3.50;;;9.20;1.00;;;;;;4991357;28;20475;-81
2022/04/11 08:22:35;;;;;;;3.40;2.80;;;9.20;1.00;;;;;;4994510;28;20417;-77
2022/04/11 08:25:05;;;;;;;3.47;3.00;;;9.20;1.00;;;;;;4993798;28;20472;-77
2022/04/11 08:28:04;;;;;;;3.60;2.60;;;9.40;1.00;;;;;;4987074;28;20464;-77
2022/04/11 08:30:58;;;;;;;4.57;2.57;;;9.60;1.00;;;;;;4989780;28;20407;-77
2022/04/11 08:36:49;;;;;;;3.40;2.90;;;9.80;1.00;;;;;;4985474;28;20762;-79
2022/04/11 08:39:23;;;;;;;41.33;16.47;;;10.10;1.00;;;;;;4988690;28;20413;-77
2022/04/11 08:42:05;;;;;;;4.93;2.67;;;10.20;1.00;;;;;;4993815;28;20405;-77
2022/04/11 08:44:32;;;;;;;4.13;2.50;;;10.30;1.00;;;;;;4997220;28;20783;-77
2022/04/11 08:47:06;;;;;;;5.47;2.33;;;10.40;1.00;;;;;;4996424;28;20467;-77
2022/04/11 08:50:10;;;;;;;141.25;50.05;;;10.50;1.00;;;;;;4983969;28;20433;-77
2022/04/11 08:55:58;;;;;;;185.60;58.90;;;10.90;1.00;;;;;;4988008;28;20426;-82
2022/04/11 08:58:23;;;;;;;591.03;310.40;;;11.00;1.00;;;;;;4995570;28;20832;-87
2022/04/11 09:04:11;;;;;;;712.70;443.90;;;11.20;1.00;;;;;;4977779;28;20292;-82
2022/04/11 09:06:37;;;;;;;6.00;2.50;;;;;;;;;;4980581;28;20511;-78
2022/04/11 09:09:03;;;;;;;4.37;2.07;;;;;;;;;;4994873;28;20579;-77
2022/04/11 09:11:36;;;;;;;52.43;20.93;;;11.50;99.90;;;;;;4996042;28;20479;-76
2022/04/11 09:14:06;;;;;;;167.77;66.37;;;11.60;99.90;;;;;;5003114;28;20400;-80
2022/04/11 09:20:18;;;;;;;4.60;1.80;;;11.70;99.90;;;;;;4995147;28;20367;-80
2022/04/11 09:26:55;;;;;;;3.87;1.60;;;11.90;99.90;;;;;;4994793;28;20510;-79
2022/04/11 09:32:55;;;;;;;8.80;4.63;;;12.30;99.90;;;;;;4993056;28;20434;-82
2022/04/11 09:39:00;;;;;;;3.00;1.80;;;12.60;99.90;;;;;;4988399;28;20510;-76
2022/04/11 09:44:57;;;;;;;2.97;1.50;;;12.70;99.90;;;;;;4983810;28;20428;-76
2022/04/11 09:47:23;;;;;;;6.87;2.33;;;12.80;99.90;;;;;;4994469;28;20783;-75
2022/04/11 09:50:00;;;;;;;4.50;1.90;;;12.90;99.90;;;;;;4993687;28;20399;-75
2022/04/11 09:52:32;;;;;;;5.23;2.00;;;12.90;99.90;;;;;;4992720;28;20917;-75
2022/04/11 09:55:46;;;;;;;3.47;1.90;;;12.90;99.90;;;;;;4993782;28;20396;-81
2022/04/11 09:58:13;;;;;;;1.60;1.40;;;;;;;;;;4989675;28;20460;-80
2022/04/11 10:00:41;;;;;;;3.03;1.93;;;13.10;99.90;;;;;;4995017;28;20898;-84
2022/04/11 10:03:07;;;;;;;3.93;2.00;;;13.20;99.90;;;;;;4995317;28;20480;-72
2022/04/11 10:05:34;;;;;;;2.30;2.10;;;13.30;99.90;;;;;;4994771;28;20395;-82
2022/04/11 10:08:03;;;;;;;6.03;2.70;;;13.40;99.90;;;;;;4994071;28;20429;-81
2022/04/11 10:10:29;;;;;;;3.20;2.27;;;;;;;;;;5010349;28;20407;-81
2022/04/11 10:13:07;;;;;;;5.87;2.60;;;13.70;99.90;;;;;;4995164;28;20407;-81
2022/04/11 10:15:49;;;;;;;8.13;2.43;;;13.80;99.90;;;;;;4994499;28;20453;-81
2022/04/11 10:18:23;;;;;;;3.27;1.97;;;13.80;99.90;;;;;;4993989;28;20468;-81
2022/04/11 10:20:51;;;;;;;3.83;1.70;;;13.90;99.90;;;;;;4997375;28;20515;-82
2022/04/11 10:23:23;;;;;;;3.10;1.97;;;14.00;99.90;;;;;;4995377;28;20394;-81
2022/04/11 10:32:54;;;;;;;3.87;1.87;;;14.30;99.90;;;;;;4989300;28;20411;-77
2022/04/11 10:35:58;;;;;;;4.17;1.90;;;14.20;99.90;;;;;;4992103;28;20515;-76
2022/04/11 10:38:24;;;;;;;3.50;2.00;;;14.30;99.90;;;;;;4995596;28;20539;-71
2022/04/11 10:40:51;;;;;;;1.90;1.67;;;;;;;;;;4995333;28;20519;-71
2022/04/11 10:43:17;;;;;;;3.67;1.87;;;14.40;99.90;;;;;;4994656;28;20192;-71
2022/04/11 10:46:05;;;;;;;2.10;1.97;;;14.40;99.90;;;;;;4995223;28;20466;-82
2022/04/11 10:48:57;;;;;;;41.10;7.83;;;14.40;99.90;;;;;;4990931;28;20412;-80
2022/04/11 10:51:22;;;;;;;5.33;2.00;;;14.50;99.90;;;;;;4991580;28;20442;-75
2022/04/11 10:54:16;;;;;;;2.43;1.63;;;14.70;99.90;;;;;;4994561;28;20407;-75
2022/04/11 10:56:53;;;;;;;2.67;1.93;;;14.80;99.90;;;;;;4992411;28;20235;-75
2022/04/11 10:59:26;;;;;;;6.23;2.00;;;14.90;99.90;;;;;;4994045;28;20478;-75
2022/04/11 11:01:59;;;;;;;3.10;2.00;;;14.70;99.90;;;;;;4994055;28;20529;-75
2022/04/11 11:04:28;;;;;;;4.93;1.93;;;14.70;99.90;;;;;;4994377;28;20601;-75
2022/04/11 11:07:24;;;;;;;2.73;1.90;;;14.80;99.90;;;;;;4993283;28;20957;-75
2022/04/11 11:09:58;;;;;;;4.40;2.00;;;14.90;99.90;;;;;;4993988;28;20435;-80
2022/04/11 11:12:24;;;;;;;3.50;2.03;;;;;;;;;;4996435;28;20398;-81
2022/04/11 11:14:50;;;;;;;6.07;2.20;;;;;;;;;;4982974;28;20419;-81
2022/04/11 11:17:16;;;;;;;4.80;1.70;;;;;;;;;;4982885;28;20435;-79
2022/04/11 11:20:02;;;;;;;4.23;2.20;;;15.00;99.90;;;;;;4993748;28;20496;-79
2022/04/11 11:22:32;;;;;;;2.17;1.73;;;15.10;99.90;;;;;;4993914;28;20429;-79
2022/04/11 11:25:17;;;;;;;2.17;1.73;;;15.20;99.90;;;;;;4994255;28;20496;-75
2022/04/11 11:27:45;;;;;;;3.23;1.80;;;15.20;99.90;;;;;;4993508;28;20431;-75
2022/04/11 11:30:12;;;;;;;2.00;1.30;;;15.30;99.90;;;;;;4993358;28;20409;-75
2022/04/11 11:32:40;;;;;;;3.23;1.40;;;15.30;99.90;;;;;;4993504;28;20403;-75
2022/04/11 11:35:08;;;;;;;4.03;1.60;;;15.40;99.90;;;;;;4993836;28;20478;-75
2022/04/11 11:37:34;;;;;;;5.00;1.93;;;;;;;;;;4992274;28;20799;-74
2022/04/11 11:40:02;;;;;;;8.67;2.07;;;15.50;99.90;;;;;;4994026;28;20432;-75
2022/04/11 11:42:35;;;;;;;6.53;1.73;;;15.70;99.90;;;;;;4993219;28;20440;-74
2022/04/11 11:45:00;;;;;;;10.93;1.80;;;15.90;99.90;;;;;;4993210;28;20391;-74
2022/04/11 11:47:27;;;;;;;1.50;1.40;;;16.00;99.90;;;;;;4993437;28;20439;-75
2022/04/11 11:50:05;;;;;;;4.13;1.53;;;16.00;99.90;;;;;;4987255;28;20171;-74
2022/04/11 11:52:31;;;;;;;2.87;1.57;;;16.00;99.90;;;;;;4992714;28;20933;-75
2022/04/11 11:54:56;;;;;;;1.80;1.60;;;16.10;99.90;;;;;;4993701;28;20810;-80
2022/04/11 11:57:28;;;;;;;3.33;2.00;;;16.10;99.90;;;;;;4993387;28;20975;-79
2022/04/11 11:59:56;;;;;;;2.73;1.80;;;16.20;99.90;;;;;;4993419;28;20529;-81
2022/04/11 12:05:18;;;;;;;4.60;2.17;;;16.50;99.90;;;;;;4993565;28;20424;-80
2022/04/11 12:07:44;;;;;;;6.37;2.07;;;16.50;99.90;;;;;;4992697;28;20434;-84
2022/04/11 12:16:58;;;;;;;6.53;2.20;;;16.50;99.90;;;;;;4995590;28;20453;-91
2022/04/11 12:19:35;;;;;;;5.13;2.07;;;16.50;99.90;;;;;;4997661;28;20924;-81
2022/04/11 12:22:11;;;;;;;9.33;2.30;;;16.70;99.90;;;;;;4997195;28;20525;-80
2022/04/11 12:24:37;;;;;;;17.80;2.93;;;16.80;99.90;;;;;;4996588;28;20968;-80
2022/04/11 12:27:10;;;;;;;6.20;2.60;;;16.90;99.90;;;;;;4997495;28;20769;-81
2022/04/11 12:29:43;;;;;;;7.93;2.17;;;17.10;99.90;;;;;;4997018;28;21004;-81
2022/04/11 12:32:14;;;;;;;14.67;2.60;;;17.20;99.90;;;;;;4993705;28;20479;-79
2022/04/11 12:34:43;;;;;;;4.87;1.80;;;17.20;99.90;;;;;;5011859;28;20774;-79
2022/04/11 12:37:10;;;;;;;5.53;1.80;;;17.20;99.90;;;;;;4997051;28;20554;-79
2022/04/11 12:39:52;;;;;;;1.27;1.20;;;17.30;99.90;;;;;;4997049;28;20453;-76
2022/04/11 12:42:21;;;;;;;2.90;1.57;;;17.40;99.90;;;;;;4995674;28;20424;-75
2022/04/11 12:44:48;;;;;;;76.03;27.87;;;17.60;99.90;;;;;;4996619;28;20450;-76
2022/04/11 12:47:14;;;;;;;4.50;2.00;;;;;;;;;;4996672;28;20391;-76
2022/04/11 12:49:51;;;;;;;4.27;1.70;;;17.50;99.90;;;;;;4995567;28;20427;-75
2022/04/11 12:52:19;;;;;;;2.13;1.53;;;17.50;99.90;;;;;;4996761;28;20422;-75
2022/04/11 12:54:59;;;;;;;3.83;1.90;;;17.50;99.90;;;;;;4986711;28;20463;-81
2022/04/11 12:57:32;;;;;;;2.93;1.93;;;17.60;99.90;;;;;;4995854;28;20467;-82
2022/04/11 13:00:13;;;;;;;2.60;1.80;;;17.60;99.90;;;;;;4996351;28;20410;-80
2022/04/11 13:02:39;;;;;;;1.80;1.60;;;17.70;99.90;;;;;;4984713;28;20462;-80
2022/04/11 13:05:12;;;;;;;3.53;1.90;;;17.50;99.90;;;;;;4996322;28;20899;-80
2022/04/11 13:07:39;;;;;;;6.40;2.20;;;17.60;99.90;;;;;;4983780;28;20546;-79
2022/04/11 13:10:06;;;;;;;2.30;1.67;;;17.70;99.90;;;;;;4996768;28;20454;-76
2022/04/11 13:12:31;;;;;;;1.77;1.60;;;17.90;99.90;;;;;;5011695;28;20434;-81
2022/04/11 13:14:58;;;;;;;2.97;2.10;;;;;;;;;;4996231;28;20870;-82
2022/04/11 13:20:08;;;;;;;2.80;1.90;;;17.80;99.90;;;;;;4996466;28;20410;-81
2022/04/11 13:22:34;;;;;;;3.23;2.10;;;17.90;99.90;;;;;;4996182;28;20409;-81
2022/04/11 13:25:00;;;;;;;2.33;2.13;;;17.90;99.90;;;;;;4996388;28;20442;-81
2022/04/11 13:27:26;;;;;;;2.03;1.77;;;17.90;99.90;;;;;;4995191;28;20195;-81
2022/04/11 13:29:52;;;;;;;1.97;1.80;;;18.00;99.90;;;;;;4995019;28;20421;-81
2022/04/11 13:32:18;;;;;;;37.57;10.33;;;18.00;99.90;;;;;;4994348;28;20263;-81
2022/04/11 13:34:47;;;;;;;8.63;3.07;;;18.00;99.90;;;;;;4995572;28;20490;-82
2022/04/11 13:37:12;;;;;;;353.90;167.67;;;17.90;99.90;;;;;;4995325;28;20217;-80
2022/04/11 13:40:16;;;;;;;1.60;1.50;;;18.00;99.90;;;;;;4974759;28;20446;-81
2022/04/11 13:42:54;;;;;;;17.40;7.37;;;18.20;99.90;;;;;;4977020;28;20628;-75
2022/04/11 13:45:30;;;;;;;45.93;17.43;;;;;;;;;;4990602;28;20473;-75
2022/04/11 13:47:55;;;;;;;3.47;2.27;;;18.30;99.90;;;;;;4996304;28;20939;-76
2022/04/11 13:51:05;;;;;;;4.00;1.70;;;18.40;99.90;;;;;;4995976;28;20419;-76
2022/04/11 13:53:35;;;;;;;2.23;2.03;;;18.60;99.90;;;;;;4996054;28;20518;-76
2022/04/11 13:56:01;;;;;;;2.13;1.70;;;18.60;99.90;;;;;;4989239;28;20911;-74
2022/04/11 13:58:27;;;;;;;3.77;1.73;;;18.40;99.90;;;;;;4996114;28;20501;-75
2022/04/11 14:00:53;;;;;;;2.57;1.77;;;18.50;99.90;;;;;;4996361;28;20165;-75
2022/04/11 14:03:29;;;;;;;1.97;1.43;;;18.40;99.90;;;;;;4996084;28;20913;-75
2022/04/11 14:06:05;;;;;;;6.73;1.70;;;18.40;99.90;;;;;;4995898;28;20200;-74
2022/04/11 14:08:31;;;;;;;2.97;2.00;;;18.50;99.90;;;;;;4984511;28;20419;-75
2022/04/11 14:10:57;;;;;;;5.13;1.80;;;18.50;99.90;;;;;;4995929;28;20431;-75
2022/04/11 14:13:23;;;;;;;10.53;5.50;;;18.60;99.90;;;;;;5001940;28;20181;-74
2022/04/11 14:15:49;;;;;;;2.73;2.10;;;18.70;99.90;;;;;;4995852;28;20254;-75
2022/04/11 14:18:17;;;;;;;1.73;1.60;;;;;;;;;;4995753;28;20457;-75
2022/04/11 14:21:12;;;;;;;6.20;2.30;;;18.70;99.90;;;;;;4996064;28;20392;-75
2022/04/11 14:23:38;;;;;;;6.73;2.33;;;18.70;99.90;;;;;;4976280;28;20402;-75
2022/04/11 14:33:22;;;;;;;3.67;2.00;;;18.70;99.90;;;;;;4995228;28;20398;-81
2022/04/11 14:35:49;;;;;;;5.07;2.37;;;18.70;99.90;;;;;;5010479;28;20398;-81
2022/04/11 14:41:36;;;;;;;4.50;2.10;;;;;;;;;;5007021;28;20494;-80
2022/04/11 14:44:02;;;;;;;5.17;2.33;;;18.70;99.90;;;;;;4994704;28;20386;-82
2022/04/11 14:46:28;;;;;;;385.33;159.90;;;18.70;99.90;;;;;;4994668;28;20975;-82
2022/04/11 14:48:54;;;;;;;2.30;2.10;;;;;;;;;;4994381;28;20181;-82
2022/04/11 14:51:19;;;;;;;3.37;2.50;;;18.80;99.90;;;;;;4994347;28;20201;-81
2022/04/11 14:53:45;;;;;;;3.40;2.40;;;;;;;;;;4994011;28;20414;-82
2022/04/11 14:56:11;;;;;;;3.47;2.33;;;19.70;99.90;;;;;;4993449;28;20194;-76
2022/04/11 14:58:37;;;;;;;4.53;2.40;;;;;;;;;;4993210;28;20834;-77
2022/04/11 15:01:03;;;;;;;6.77;3.13;;;;;;;;;;4993296;28;20180;-77
2022/04/11 15:03:29;;;;;;;3.70;2.47;;;;;;;;;;4994368;28;20408;-77
2022/04/11 15:05:55;;;;;;;3.37;2.33;;;;;;;;;;4994185;28;20413;-77
2022/04/11 15:08:21;;;;;;;4.13;2.47;;;;;;;;;;4994335;28;20409;-77
2022/04/11 15:10:47;;;;;;;6.00;2.40;;;;;;;;;;4993961;28;20780;-77
2022/04/11 15:13:13;;;;;;;7.40;2.80;;;24.90;99.90;;;;;;4998092;28;20426;-77
2022/04/11 15:15:39;;;;;;;10.67;3.30;;;;;;;;;;4992482;28;20424;-77
2022/04/11 15:18:05;;;;;;;3.90;2.30;;;;;;;;;;4993747;28;20609;-77
2022/04/11 15:20:31;;;;;;;3.60;2.50;;;25.60;99.90;;;;;;4993503;28;20932;-71
2022/04/11 15:22:57;;;;;;;4.33;2.17;;;26.50;99.90;;;;;;4994099;28;20422;-72
2022/04/11 15:25:22;;;;;;;6.00;2.47;;;27.30;99.90;;;;;;4993715;28;20710;-72
2022/04/11 15:27:48;;;;;;;10.17;4.17;;;27.40;99.90;;;;;;4993947;28;20519;-72
2022/04/11 15:30:14;;;;;;;10.13;2.87;;;28.10;99.90;;;;;;4992146;28;20227;-73
2022/04/11 15:32:40;;;;;;;9.97;2.33;;;28.50;99.90;;;;;;4984945;28;20176;-72
2022/04/11 15:35:06;;;;;;;7.30;2.87;;;28.50;99.90;;;;;;4993998;28;20466;-71
2022/04/11 15:37:34;;;;;;;7.77;2.80;;;;;;;;;;4993851;28;20197;-71
2022/04/11 15:40:00;;;;;;;25.13;7.60;;;29.30;99.90;;;;;;4993847;28;20507;-71
2022/04/11 15:42:26;;;;;;;3.43;1.90;;;29.20;99.90;;;;;;4994439;28;20803;-72
2022/04/11 15:44:51;;;;;;;2.10;1.60;;;29.90;99.90;;;;;;4993954;28;20416;-73
2022/04/11 15:47:17;;;;;;;8.47;2.60;;;29.70;99.90;;;;;;4993359;28;20818;-74
2022/04/11 15:49:47;;;;;;;2.60;1.93;;;30.30;99.90;;;;;;4993386;28;20639;-73
2022/04/11 15:52:13;;;;;;;13.93;2.70;;;30.90;99.90;;;;;;5008514;28;20656;-75
2022/04/11 15:54:39;;;;;;;279.73;199.47;;;;;;;;;;4994116;28;20503;-74
2022/04/11 15:57:05;;;;;;;14.77;8.13;;;30.90;99.90;;;;;;4994148;28;20201;-76
2022/04/11 15:59:31;;;;;;;6.37;2.10;;;30.90;99.90;;;;;;4993082;28;20435;-71
2022/04/11 16:01:57;;;;;;;4.30;2.10;;;30.50;99.90;;;;;;4993951;28;20640;-71